createdAt,value
2022-09-11T00:01:41.351Z,1.00
2022-09-11T00:04:09.222Z,1.05
2022-09-11T00:06:36.859Z,0.90
2022-09-11T00:09:06.606Z,1.08
2022-09-11T00:11:38.843Z,1.08
2022-09-11T00:14:06.679Z,1.15
2022-09-11T00:16:40.841Z,1.00
2022-09-11T00:19:12.389Z,1.10
2022-09-11T00:21:40.466Z,1.00
2022-09-11T00:24:10.950Z,1.15
2022-09-11T00:26:39.752Z,1.10
2022-09-11T00:29:07.605Z,1.20
2022-09-11T00:31:35.392Z,1.45
2022-09-11T00:34:03.128Z,1.20
2022-09-11T00:36:32.618Z,1.10
2022-09-11T00:39:00.748Z,1.33
2022-09-11T00:41:30.329Z,1.08
2022-09-11T00:44:26.218Z,1.25
2022-09-11T00:46:57.082Z,1.25
2022-09-11T00:49:31.534Z,1.20
2022-09-11T00:52:21.052Z,1.08
2022-09-11T00:54:52.782Z,1.58
2022-09-11T00:57:26.914Z,0.88
2022-09-11T00:59:59.514Z,0.95
2022-09-11T01:02:29.665Z,1.10
2022-09-11T01:04:58.854Z,1.00
2022-09-11T01:07:29.492Z,1.00
2022-09-11T01:09:57.899Z,0.90
2022-09-11T01:12:28.519Z,0.90
2022-09-11T01:15:09.703Z,1.23
2022-09-11T01:17:50.777Z,1.10
2022-09-11T01:20:37.641Z,1.00
2022-09-11T01:24:01.649Z,0.85
2022-09-11T01:27:08.093Z,1.30
2022-09-11T01:29:51.989Z,1.00
2022-09-11T01:32:25.094Z,1.20
2022-09-11T01:35:02.942Z,1.10
2022-09-11T01:37:41.720Z,0.90
2022-09-11T01:40:18.788Z,1.00
2022-09-11T01:42:47.195Z,0.90
2022-09-11T01:45:17.620Z,1.00
2022-09-11T01:47:48.320Z,1.10
2022-09-11T01:50:19.190Z,1.10
2022-09-11T01:52:56.475Z,0.75
2022-09-11T01:55:31.165Z,1.20
2022-09-11T01:58:05.032Z,1.08
2022-09-11T02:00:37.270Z,1.08
2022-09-11T02:03:17.574Z,1.00
2022-09-11T02:05:58.649Z,1.10
2022-09-11T02:08:37.254Z,1.00
2022-09-11T02:11:10.186Z,1.08
2022-09-11T02:13:50.170Z,0.70
2022-09-11T02:16:31.678Z,0.77
2022-09-11T02:19:06.990Z,0.98
2022-09-11T02:21:35.535Z,1.00
2022-09-11T02:24:03.869Z,1.02
2022-09-11T02:26:35.184Z,1.10
2022-09-11T02:29:02.995Z,0.90
2022-09-11T02:31:30.996Z,1.00
2022-09-11T02:33:58.967Z,1.58
2022-09-11T02:36:43.591Z,1.20
2022-09-11T02:39:43.318Z,1.33
2022-09-11T02:42:36.412Z,1.10
2022-09-11T02:45:39.471Z,1.08
2022-09-11T02:48:18.709Z,0.80
2022-09-11T02:51:33.930Z,1.00
2022-09-11T02:54:35.075Z,1.10
2022-09-11T02:57:12.657Z,1.05
2022-09-11T02:59:46.020Z,1.00
2022-09-11T03:02:15.821Z,1.00
2022-09-11T03:04:43.550Z,1.23
2022-09-11T03:07:11.333Z,1.00
2022-09-11T03:09:39.089Z,0.80
2022-09-11T03:12:07.159Z,1.05
2022-09-11T03:14:35.681Z,1.10
2022-09-11T03:17:03.483Z,1.05
2022-09-11T03:19:31.690Z,0.95
2022-09-11T03:21:59.342Z,1.20
2022-09-11T03:24:27.906Z,1.33
2022-09-11T03:26:55.712Z,0.90
2022-09-11T03:29:23.348Z,1.35
2022-09-11T03:31:51.064Z,1.08
2022-09-11T03:34:19.089Z,1.00
2022-09-11T03:36:48.096Z,1.00
2022-09-11T03:39:15.807Z,1.08
2022-09-11T03:41:43.610Z,1.00
2022-09-11T03:44:13.771Z,1.33
2022-09-11T03:46:41.404Z,1.02
2022-09-11T03:49:08.973Z,0.98
2022-09-11T03:51:36.627Z,0.80
2022-09-11T03:54:04.419Z,0.82
2022-09-11T03:56:32.534Z,1.05
2022-09-11T03:59:03.991Z,1.15
2022-09-11T04:01:31.660Z,1.05
2022-09-11T04:03:59.313Z,1.17
2022-09-11T04:06:26.980Z,1.10
2022-09-11T04:08:54.643Z,1.00
2022-09-11T04:11:23.652Z,1.12
2022-09-11T04:13:52.308Z,1.00
2022-09-11T04:16:21.257Z,1.15
2022-09-11T04:18:50.025Z,1.10
2022-09-11T04:21:19.566Z,0.90
2022-09-11T04:23:52.893Z,1.10
2022-09-11T04:26:22.589Z,1.08
2022-09-11T04:28:50.620Z,1.23
2022-09-11T04:31:19.989Z,1.25
2022-09-11T04:33:48.380Z,1.10
2022-09-11T04:36:18.837Z,1.00
2022-09-11T04:38:48.070Z,1.00
2022-09-11T04:41:17.429Z,1.23
2022-09-11T04:43:45.028Z,0.95
2022-09-11T04:46:14.591Z,1.00
2022-09-11T04:48:50.505Z,1.00
2022-09-11T04:51:35.824Z,1.10
2022-09-11T04:54:04.469Z,1.10
2022-09-11T04:56:35.363Z,1.40
2022-09-11T04:59:06.904Z,1.00
2022-09-11T05:01:35.253Z,1.25
2022-09-11T05:04:03.132Z,1.00
2022-09-11T05:06:31.567Z,1.25
2022-09-11T05:09:09.014Z,1.40
2022-09-11T05:11:39.347Z,0.85
2022-09-11T05:14:07.333Z,1.00
2022-09-11T05:16:36.845Z,1.23
2022-09-11T05:19:05.589Z,1.02
2022-09-11T05:21:34.469Z,1.10
2022-09-11T05:24:03.404Z,0.90
2022-09-11T05:26:37.060Z,0.98
2022-09-11T05:29:08.405Z,1.05
2022-09-11T05:31:36.485Z,1.40
2022-09-11T05:34:04.474Z,0.75
2022-09-11T05:36:32.420Z,1.30
2022-09-11T05:39:00.979Z,1.17
2022-09-11T05:41:29.307Z,1.00
2022-09-11T05:43:56.968Z,1.35
2022-09-11T05:46:24.673Z,1.15
2022-09-11T05:48:52.343Z,0.82
2022-09-11T05:51:22.457Z,1.08
2022-09-11T05:53:54.709Z,0.93
2022-09-11T05:56:25.037Z,1.30
2022-09-11T05:58:52.886Z,1.02
2022-09-11T06:01:23.455Z,1.20
2022-09-11T06:03:51.858Z,0.80
2022-09-11T06:06:22.263Z,1.30
2022-09-11T06:08:51.107Z,0.85
2022-09-11T06:11:20.233Z,1.12
2022-09-11T06:13:49.178Z,1.10
2022-09-11T06:16:19.332Z,1.10
2022-09-11T06:18:51.634Z,1.20
2022-09-11T06:21:22.428Z,1.10
2022-09-11T06:23:51.727Z,1.00
2022-09-11T06:26:25.216Z,1.30
2022-09-11T06:28:54.202Z,1.20
2022-09-11T06:31:26.879Z,1.15
2022-09-11T06:33:54.820Z,1.45
2022-09-11T06:36:25.046Z,1.30
2022-09-11T06:38:57.950Z,1.00
2022-09-11T06:41:26.735Z,1.17
2022-09-11T06:43:54.573Z,1.27
2022-09-11T06:46:24.090Z,0.90
2022-09-11T06:48:52.834Z,0.93
2022-09-11T06:51:22.586Z,1.12
2022-09-11T06:53:50.365Z,0.82
2022-09-11T06:56:19.585Z,1.00
2022-09-11T06:58:47.699Z,0.98
2022-09-11T07:01:20.810Z,1.20
2022-09-11T07:03:50.811Z,1.33
2022-09-11T07:06:21.113Z,1.10
2022-09-11T07:08:57.898Z,1.10
2022-09-11T07:11:25.531Z,1.05
2022-09-11T07:13:53.201Z,1.20
2022-09-11T07:16:20.889Z,1.02
2022-09-11T07:18:49.249Z,1.25
2022-09-11T07:21:22.906Z,1.10
2022-09-11T07:23:52.917Z,1.10
2022-09-11T07:26:22.971Z,1.12
2022-09-11T07:28:51.314Z,1.10
2022-09-11T07:31:21.977Z,1.20
2022-09-11T07:33:51.312Z,1.20
2022-09-11T07:36:23.678Z,1.27
2022-09-11T07:38:52.382Z,0.90
2022-09-11T07:41:22.370Z,1.10
2022-09-11T07:43:55.303Z,1.15
2022-09-11T07:46:23.732Z,1.02
2022-09-11T07:48:51.658Z,1.30
2022-09-11T07:51:20.276Z,0.93
2022-09-11T07:53:50.747Z,1.10
2022-09-11T07:56:26.156Z,1.25
2022-09-11T07:58:56.187Z,1.20
2022-09-11T08:01:30.828Z,1.20
2022-09-11T08:04:04.466Z,1.60
2022-09-11T08:06:35.156Z,1.20
2022-09-11T08:09:06.071Z,0.90
2022-09-11T08:11:37.569Z,0.90
2022-09-11T08:14:06.075Z,1.30
2022-09-11T08:16:33.966Z,1.50
2022-09-11T08:19:01.636Z,0.90
2022-09-11T08:21:29.301Z,1.20
2022-09-11T08:23:57.359Z,1.37
2022-09-11T08:26:28.419Z,0.90
2022-09-11T08:28:57.706Z,0.95
2022-09-11T08:31:28.109Z,1.42
2022-09-11T08:33:57.120Z,1.48
2022-09-11T08:36:25.656Z,1.30
2022-09-11T08:38:53.890Z,1.15
2022-09-11T08:41:24.310Z,0.90
2022-09-11T08:43:57.722Z,1.12
2022-09-11T08:46:29.834Z,1.25
2022-09-11T08:49:22.402Z,1.00
2022-09-11T08:51:52.560Z,1.20
2022-09-11T08:54:30.098Z,1.00
2022-09-11T08:57:25.423Z,1.10
2022-09-11T09:00:00.538Z,1.40
2022-09-11T09:02:42.841Z,1.23
2022-09-11T09:05:16.230Z,1.08
2022-09-11T09:08:15.989Z,0.98
2022-09-11T09:11:21.608Z,1.08
2022-09-11T09:14:16.367Z,0.85
2022-09-11T09:17:08.707Z,1.20
2022-09-11T09:20:14.810Z,1.45
2022-09-11T09:23:03.544Z,1.10
2022-09-11T09:25:36.239Z,0.90
2022-09-11T09:28:21.573Z,0.77
2022-09-11T09:30:58.491Z,0.82
2022-09-11T09:33:36.326Z,1.10
2022-09-11T09:36:18.698Z,0.90
2022-09-11T09:38:47.506Z,0.98
2022-09-11T09:41:20.773Z,0.80
2022-09-11T09:44:15.464Z,0.90
2022-09-11T09:46:51.195Z,0.80
2022-09-11T09:49:25.365Z,0.80
2022-09-11T09:52:04.080Z,1.23
2022-09-11T09:54:35.139Z,0.85
2022-09-11T09:57:12.927Z,1.12
2022-09-11T09:59:58.635Z,0.90
2022-09-11T10:02:40.993Z,0.90
2022-09-11T10:05:18.094Z,1.00
2022-09-11T10:07:54.878Z,0.80
2022-09-11T10:10:29.472Z,0.90
2022-09-11T10:13:18.075Z,0.98
2022-09-11T10:15:50.057Z,1.00
2022-09-11T10:18:30.552Z,1.00
2022-09-11T10:21:13.410Z,1.23
2022-09-11T10:24:03.346Z,0.82
2022-09-11T10:26:47.000Z,1.12
2022-09-11T10:29:20.244Z,0.90
2022-09-11T10:31:53.095Z,1.20
2022-09-11T10:34:23.354Z,1.00
2022-09-11T10:36:56.054Z,1.50
2022-09-11T10:39:27.212Z,1.00
2022-09-11T10:41:58.256Z,1.10
2022-09-11T10:44:29.102Z,1.00
2022-09-11T10:47:18.506Z,1.30
2022-09-11T10:49:48.296Z,1.02
2022-09-11T10:52:16.257Z,1.10
2022-09-11T10:55:16.386Z,1.00
2022-09-11T10:58:15.362Z,1.00
2022-09-11T11:00:43.190Z,1.08
2022-09-11T11:03:20.344Z,1.08
2022-09-11T11:05:59.183Z,1.25
2022-09-11T11:08:40.283Z,1.17
2022-09-11T11:11:21.778Z,0.90
2022-09-11T11:14:12.562Z,1.35
2022-09-11T11:17:25.203Z,1.27
2022-09-11T11:20:14.850Z,1.08
2022-09-11T11:23:16.421Z,1.10
2022-09-11T11:26:07.310Z,1.42
2022-09-11T11:28:44.546Z,1.10
2022-09-11T11:31:35.581Z,1.40
2022-09-11T11:34:15.790Z,1.20
2022-09-11T11:36:57.096Z,1.45
2022-09-11T11:39:30.834Z,1.50
2022-09-11T11:42:34.869Z,1.10
2022-09-11T11:45:33.319Z,1.15
2022-09-11T11:48:05.501Z,1.20
2022-09-11T11:50:44.563Z,1.30
2022-09-11T11:53:51.277Z,1.30
2022-09-11T11:56:41.922Z,1.27
2022-09-11T11:59:34.463Z,0.90
2022-09-11T12:02:11.028Z,1.00
2022-09-11T12:04:59.706Z,0.85
2022-09-11T12:07:32.638Z,1.25
2022-09-11T12:10:06.178Z,1.10
2022-09-11T12:12:47.207Z,1.15
2022-09-11T12:15:24.067Z,1.10
2022-09-11T12:18:08.234Z,1.00
2022-09-11T12:20:44.083Z,1.10
2022-09-11T12:23:56.924Z,1.05
2022-09-11T12:26:28.373Z,1.10
2022-09-11T12:29:15.147Z,1.00
2022-09-11T12:31:51.899Z,0.88
2022-09-11T12:34:24.828Z,1.55
2022-09-11T12:37:03.318Z,1.10
2022-09-11T12:39:34.307Z,0.90
2022-09-11T12:42:24.106Z,0.93
2022-09-11T12:44:51.664Z,0.70
2022-09-11T12:47:26.891Z,0.90
2022-09-11T12:50:00.966Z,1.00
2022-09-11T12:52:47.585Z,0.90
2022-09-11T12:55:36.647Z,0.98
2022-09-11T12:58:08.284Z,1.00
2022-09-11T13:00:43.667Z,0.90
2022-09-11T13:03:29.101Z,1.23
2022-09-11T13:06:02.612Z,1.27
2022-09-11T13:08:36.040Z,1.02
2022-09-11T13:11:37.767Z,1.12
2022-09-11T13:14:25.687Z,1.00
2022-09-11T13:16:53.490Z,0.95
2022-09-11T13:19:22.204Z,1.12
2022-09-11T13:21:55.273Z,1.10
2022-09-11T13:24:29.769Z,1.20
2022-09-11T13:27:02.668Z,1.17
2022-09-11T13:29:33.639Z,1.20
2022-09-11T13:32:13.631Z,1.10
2022-09-11T13:34:45.972Z,0.85
2022-09-11T13:37:32.345Z,0.88
2022-09-11T13:40:01.722Z,1.00
2022-09-11T13:42:30.331Z,1.00
2022-09-11T13:45:00.393Z,1.20
2022-09-11T13:47:30.675Z,1.27
2022-09-11T13:50:11.116Z,1.30
2022-09-11T13:52:39.329Z,1.10
2022-09-11T13:55:28.181Z,1.05
2022-09-11T13:57:59.504Z,1.20
2022-09-11T14:00:56.813Z,1.30
2022-09-11T14:03:33.057Z,1.10
2022-09-11T14:06:11.397Z,1.00
2022-09-11T14:08:41.570Z,1.00
2022-09-11T14:11:12.014Z,1.10
2022-09-11T14:13:50.257Z,1.35
2022-09-11T14:16:17.986Z,1.20
2022-09-11T14:19:02.820Z,1.00
2022-09-11T14:21:36.682Z,1.10
2022-09-11T14:24:10.142Z,1.20
2022-09-11T14:26:41.510Z,0.90
2022-09-11T14:29:32.738Z,1.10
2022-09-11T14:32:33.114Z,1.17
2022-09-11T14:35:02.144Z,0.95
2022-09-11T14:37:36.048Z,1.30
2022-09-11T14:40:15.014Z,1.05
2022-09-11T14:42:43.982Z,1.10
2022-09-11T14:45:19.934Z,1.30
2022-09-11T14:47:47.891Z,1.27
2022-09-11T14:50:15.705Z,1.30
2022-09-11T14:52:43.815Z,1.10
2022-09-11T14:55:20.321Z,1.33
2022-09-11T14:57:48.490Z,0.93
2022-09-11T15:00:18.659Z,1.30
2022-09-11T15:02:47.570Z,1.00
2022-09-11T15:05:17.690Z,1.05
2022-09-11T15:07:46.647Z,0.90
2022-09-11T15:10:15.921Z,0.80
2022-09-11T15:12:43.816Z,1.20
2022-09-11T15:15:11.976Z,1.10
2022-09-11T15:17:39.896Z,1.02
2022-09-11T15:20:10.179Z,0.93
2022-09-11T15:22:39.308Z,1.00
2022-09-11T15:25:07.731Z,0.90
2022-09-11T15:27:35.415Z,0.80
2022-09-11T15:30:03.439Z,1.00
2022-09-11T15:32:32.447Z,0.90
2022-09-11T15:35:00.023Z,0.90
2022-09-11T15:37:27.713Z,1.48
2022-09-11T15:39:55.492Z,0.88
2022-09-11T15:42:23.338Z,0.95
2022-09-11T15:44:51.718Z,1.30
2022-09-11T15:47:19.392Z,0.88
2022-09-11T15:49:48.913Z,0.93
2022-09-11T15:52:16.728Z,1.60
2022-09-11T15:54:46.534Z,0.70
2022-09-11T15:57:14.680Z,1.00
2022-09-11T15:59:43.165Z,0.90
2022-09-11T16:02:12.550Z,1.00
2022-09-11T16:04:40.283Z,1.10
2022-09-11T16:07:08.014Z,1.10
2022-09-11T16:09:36.255Z,1.00
2022-09-11T16:12:04.589Z,0.93
2022-09-11T16:14:34.507Z,0.90
2022-09-11T16:17:04.057Z,1.02
2022-09-11T16:19:32.758Z,0.82
2022-09-11T16:22:02.755Z,1.10
2022-09-11T16:24:31.991Z,1.00
2022-09-11T16:27:01.812Z,1.05
2022-09-11T16:29:56.563Z,0.80
2022-09-11T16:32:29.191Z,1.10
2022-09-11T16:34:58.712Z,0.80
2022-09-11T16:37:27.017Z,1.00
2022-09-11T16:39:54.730Z,0.80
2022-09-11T16:42:23.171Z,0.82
2022-09-11T16:44:51.390Z,0.80
2022-09-11T16:47:19.312Z,1.12
2022-09-11T16:52:35.745Z,0.80
2022-09-11T16:55:03.599Z,1.10
2022-09-11T16:57:32.071Z,0.90
2022-09-11T16:59:59.853Z,0.93
2022-09-11T17:02:28.012Z,0.93
2022-09-11T17:04:55.599Z,1.02
2022-09-11T17:07:24.813Z,1.02
2022-09-11T17:09:52.446Z,0.90
2022-09-11T17:12:20.049Z,1.00
2022-09-11T17:14:47.718Z,1.02
2022-09-11T17:17:15.486Z,0.85
2022-09-11T17:19:43.127Z,1.17
2022-09-11T17:22:11.371Z,1.00
2022-09-11T17:24:39.952Z,1.10
2022-09-11T17:27:07.697Z,1.15
2022-09-11T17:29:36.194Z,1.10
2022-09-11T17:32:26.862Z,1.23
2022-09-11T17:34:52.530Z,0.82
2022-09-11T17:37:20.205Z,1.50
2022-09-11T17:39:47.933Z,1.65
2022-09-11T17:42:15.567Z,1.60
2022-09-11T17:44:44.361Z,1.83
2022-09-11T17:47:12.074Z,1.80
2022-09-11T17:49:39.692Z,2.22
2022-09-11T17:52:08.317Z,4.00
2022-09-11T17:54:36.102Z,1.98
2022-09-11T17:57:03.815Z,1.20
2022-09-11T17:59:31.584Z,1.12
2022-09-11T18:02:01.009Z,1.12
2022-09-11T18:04:28.866Z,1.00
2022-09-11T18:06:56.485Z,1.35
2022-09-11T18:09:24.326Z,1.37
2022-09-11T18:11:54.966Z,1.42
2022-09-11T18:14:23.979Z,1.12
2022-09-11T18:16:51.712Z,1.10
2022-09-11T18:19:23.494Z,1.33
2022-09-11T18:21:51.946Z,1.23
2022-09-11T18:24:21.658Z,1.27
2022-09-11T18:26:52.048Z,1.60
2022-09-11T18:29:21.363Z,1.85
2022-09-11T18:31:52.781Z,2.28
2022-09-11T18:34:22.997Z,2.20
2022-09-11T18:36:50.760Z,1.95
2022-09-11T18:39:20.002Z,1.83
2022-09-11T18:41:48.890Z,1.40
2022-09-11T18:44:20.014Z,1.45
2022-09-11T18:46:48.925Z,1.70
2022-09-11T18:49:17.328Z,1.60
2022-09-11T18:51:44.984Z,1.67
2022-09-11T18:54:18.475Z,1.23
2022-09-11T18:56:46.670Z,1.50
2022-09-11T18:59:15.133Z,1.60
2022-09-11T19:01:43.369Z,1.87
2022-09-11T19:04:13.118Z,2.05
2022-09-11T19:06:41.479Z,1.80
2022-09-11T19:09:14.408Z,1.95
2022-09-11T19:11:42.566Z,2.15
2022-09-11T19:14:12.945Z,1.73
2022-09-11T19:16:41.065Z,2.42
2022-09-11T19:19:09.648Z,1.95
2022-09-11T19:21:39.401Z,1.90
2022-09-11T19:24:07.956Z,1.90
2022-09-11T19:26:39.903Z,1.50
2022-09-11T19:29:09.764Z,1.33
2022-09-11T19:31:40.087Z,2.15
2022-09-11T19:34:09.836Z,1.70
2022-09-11T19:36:37.654Z,1.50
2022-09-11T19:39:06.267Z,2.15
2022-09-11T19:41:38.323Z,2.03
2022-09-11T19:44:08.634Z,1.70
2022-09-11T19:46:37.008Z,2.30
2022-09-11T19:49:07.437Z,2.10
2022-09-11T19:51:38.258Z,1.83
2022-09-11T19:54:06.815Z,1.90
2022-09-11T19:56:37.074Z,1.80
2022-09-11T19:59:06.273Z,2.25
2022-09-11T20:01:34.206Z,2.22
2022-09-11T20:04:01.925Z,1.90
2022-09-11T20:06:31.682Z,1.92
2022-09-11T20:09:20.225Z,1.77
2022-09-11T20:11:47.684Z,1.55
2022-09-11T20:14:15.408Z,2.00
2022-09-11T20:16:43.012Z,1.75
2022-09-11T20:19:11.104Z,1.87
2022-09-11T20:21:39.341Z,1.92
2022-09-11T20:24:10.391Z,1.95
2022-09-11T20:26:38.108Z,1.90
2022-09-11T20:29:10.202Z,2.10
2022-09-11T20:31:47.644Z,1.85
2022-09-11T20:34:17.556Z,2.90
2022-09-11T20:36:45.523Z,2.20
2022-09-11T20:39:14.654Z,2.50
2022-09-11T20:41:42.357Z,2.28
2022-09-11T20:44:10.083Z,2.42
2022-09-11T20:46:38.045Z,2.10
2022-09-11T20:49:06.603Z,2.85
2022-09-11T20:51:35.449Z,2.75
2022-09-11T20:54:03.417Z,2.37
2022-09-11T20:56:31.667Z,2.53
2022-09-11T20:59:00.656Z,2.53
2022-09-11T21:01:33.528Z,2.22
2022-09-11T21:04:03.255Z,2.12
2022-09-11T21:06:33.589Z,2.37
2022-09-11T21:09:07.581Z,2.60
2022-09-11T21:11:36.410Z,2.58
2022-09-11T21:14:04.627Z,2.42
2022-09-11T21:16:32.673Z,2.10
2022-09-11T21:19:02.204Z,2.42
2022-09-11T21:21:31.059Z,2.80
2022-09-11T21:24:02.308Z,2.45
2022-09-11T21:26:31.662Z,2.22
2022-09-11T21:29:01.849Z,1.92
2022-09-11T21:31:29.589Z,2.40
2022-09-11T21:33:57.487Z,2.42
2022-09-11T21:36:25.556Z,2.72
2022-09-11T21:38:53.232Z,2.15
2022-09-11T21:41:20.970Z,2.10
2022-09-11T21:43:48.792Z,2.25
2022-09-11T21:46:16.617Z,2.12
2022-09-11T21:48:44.423Z,2.70
2022-09-11T21:51:14.274Z,2.75
2022-09-11T21:53:44.856Z,3.20
2022-09-11T21:56:21.492Z,2.47
2022-09-11T21:58:49.926Z,2.35
2022-09-11T22:01:17.831Z,2.30
2022-09-11T22:03:45.786Z,2.33
2022-09-11T22:06:14.350Z,2.60
2022-09-11T22:08:43.821Z,2.20
2022-09-11T22:11:12.478Z,2.50
2022-09-11T22:13:40.343Z,2.53
2022-09-11T22:16:10.755Z,2.28
2022-09-11T22:18:40.740Z,2.17
2022-09-11T22:21:09.638Z,2.05
2022-09-11T22:23:37.677Z,2.30
2022-09-11T22:26:09.911Z,2.33
2022-09-11T22:28:38.915Z,2.28
2022-09-11T22:31:18.014Z,1.85
2022-09-11T22:33:46.522Z,1.90
2022-09-11T22:36:20.840Z,1.90
2022-09-11T22:38:49.661Z,1.80
2022-09-11T22:41:18.152Z,2.15
2022-09-11T22:43:46.524Z,2.05
2022-09-11T22:46:14.851Z,1.77
2022-09-11T22:48:42.646Z,2.70
2022-09-11T22:51:10.786Z,2.10
2022-09-11T22:53:40.822Z,2.15
2022-09-11T22:56:08.909Z,2.67
2022-09-11T22:58:37.143Z,2.47
2022-09-11T23:01:05.965Z,2.30
2022-09-11T23:03:33.685Z,2.30
2022-09-11T23:06:21.897Z,2.25
2022-09-11T23:08:50.327Z,2.42
2022-09-11T23:11:20.857Z,2.00
2022-09-11T23:13:50.154Z,2.28
2022-09-11T23:16:21.708Z,2.10
2022-09-11T23:18:53.694Z,2.25
2022-09-11T23:21:21.317Z,1.90
2022-09-11T23:23:54.805Z,2.10
2022-09-11T23:26:24.246Z,2.10
2022-09-11T23:28:52.940Z,2.10
2022-09-11T23:31:26.177Z,1.90
2022-09-11T23:33:56.477Z,2.20
2022-09-11T23:36:24.758Z,1.98
2022-09-11T23:38:52.693Z,2.28
2022-09-11T23:41:20.495Z,1.70
2022-09-11T23:43:49.078Z,2.00
2022-09-11T23:46:17.599Z,1.90
2022-09-11T23:48:45.378Z,2.05
2022-09-11T23:51:13.600Z,2.05
2022-09-11T23:53:44.631Z,1.70
2022-09-11T23:56:15.273Z,1.92
2022-09-11T23:58:43.658Z,2.30
